Time;durP1;ratioP1;P1;durP2;ratioP2;P2;SDS_P1;SDS_P2;PMS_P1;PMS_P2;Temp;Humidity;BMP_temperature;BMP_pressure;BME280_temperature;BME280_humidity;BME280_pressure;Samples;Min_cycle;Max_cycle;Signal;HPM_P1;HPM_P2
2021/01/19 00:02:20;;;;;;;45.70;20.98;;;;;;;2.46;100.00;100876.53;4971163;28;20039;-81
2021/01/19 00:04:47;;;;;;;41.95;22.20;;;;;;;2.38;100.00;100881.03;4965296;28;20173;-80
2021/01/19 00:07:14;;;;;;;41.55;21.85;;;;;;;2.41;100.00;100870.59;4977069;28;20178;-80
2021/01/19 00:09:40;;;;;;;41.22;21.60;;;;;;;2.50;100.00;100866.94;4992260;28;20050;-82
2021/01/19 00:12:07;;;;;;;42.20;24.25;;;;;;;2.56;100.00;100869.41;4974732;28;20046;-83
2021/01/19 00:15:31;;;;;;;33.20;21.08;;;;;;;2.64;99.98;100869.25;4977097;28;20062;-79
2021/01/19 00:17:58;;;;;;;33.47;20.27;;;;;;;2.65;99.88;100863.16;4996216;28;20051;-85
2021/01/19 00:20:25;;;;;;;36.55;21.63;;;;;;;2.65;99.31;100865.75;4980267;28;20145;-81
2021/01/19 00:22:52;;;;;;;34.80;20.13;;;;;;;2.63;99.18;100857.13;4957618;28;20051;-81
2021/01/19 00:25:24;;;;;;;40.15;21.13;;;;;;;2.60;99.24;100855.44;4973729;28;20039;-80
2021/01/19 00:27:51;;;;;;;39.70;22.52;;;;;;;2.59;99.50;100850.31;4953478;28;20081;-83
2021/01/19 00:30:18;;;;;;;40.28;21.27;;;;;;;2.61;99.71;100858.91;4975272;28;20085;-80
2021/01/19 00:32:46;;;;;;;38.00;20.13;;;;;;;2.53;99.24;100864.28;4969424;28;20494;-81
2021/01/19 00:35:13;;;;;;;37.13;21.33;;;;;;;2.34;99.79;100853.41;4979793;28;20058;-82
2021/01/19 00:37:40;;;;;;;41.92;22.73;;;;;;;2.42;100.00;100855.84;4972770;28;20051;-82
2021/01/19 00:40:08;;;;;;;43.55;21.85;;;;;;;2.35;99.97;100847.34;4969669;28;20149;-80
2021/01/19 00:42:36;;;;;;;34.47;20.90;;;;;;;2.35;99.76;100857.75;4969239;28;20066;-81
2021/01/19 00:45:03;;;;;;;40.42;21.90;;;;;;;2.42;99.71;100843.72;4973129;28;20043;-81
2021/01/19 00:47:34;;;;;;;37.88;21.02;;;;;;;2.46;99.35;100850.56;4950676;28;20062;-82
2021/01/19 00:50:01;;;;;;;37.35;22.23;;;;;;;2.24;100.00;100857.97;4968312;28;20050;-82
2021/01/19 00:52:28;;;;;;;45.00;21.58;;;;;;;2.27;100.00;100850.09;4971518;28;20729;-82
2021/01/19 00:54:55;;;;;;;43.67;21.55;;;;;;;2.38;100.00;100849.88;4969923;28;20080;-83
2021/01/19 00:57:21;;;;;;;42.78;22.88;;;;;;;2.26;100.00;100855.34;4952756;28;20067;-81
2021/01/19 00:59:48;;;;;;;45.92;23.00;;;;;;;2.28;100.00;100848.38;4973952;28;20145;-81
2021/01/19 01:02:18;;;;;;;44.00;22.63;;;;;;;2.39;100.00;100855.94;4962621;28;20070;-82
2021/01/19 01:04:48;;;;;;;38.50;21.35;;;;;;;2.43;100.00;100850.66;4957175;28;20057;-81
2021/01/19 01:07:22;;;;;;;48.05;22.75;;;;;;;2.25;100.00;100856.22;4960816;28;20050;-82
2021/01/19 01:09:49;;;;;;;51.80;23.42;;;;;;;2.19;100.00;100843.34;4971990;28;20043;-80
2021/01/19 01:12:16;;;;;;;33.47;21.05;;;;;;;2.32;100.00;100850.00;4955300;28;20050;-81
2021/01/19 01:14:44;;;;;;;47.20;23.08;;;;;;;2.23;100.00;100847.59;4957715;28;20046;-82
2021/01/19 01:17:11;;;;;;;42.92;21.52;;;;;;;2.27;100.00;100841.47;4970249;28;20045;-81
2021/01/19 01:19:38;;;;;;;44.17;21.60;;;;;;;2.43;100.00;100847.16;4953227;28;20054;-80
2021/01/19 01:22:04;;;;;;;43.97;21.30;;;;;;;2.42;100.00;100838.53;4964237;28;20039;-83
2021/01/19 01:24:32;;;;;;;36.67;19.95;;;;;;;2.29;100.00;100837.94;4970729;28;20048;-80
2021/01/19 01:26:58;;;;;;;42.60;21.77;;;;;;;2.07;100.00;100833.22;4977906;28;20034;-82
2021/01/19 01:29:25;;;;;;;39.50;22.10;;;;;;;2.21;100.00;100832.06;4956832;28;20065;-82
2021/01/19 01:31:52;;;;;;;36.15;21.33;;;;;;;2.18;100.00;100834.72;4955809;28;20042;-81
2021/01/19 01:34:19;;;;;;;38.33;21.77;;;;;;;2.15;100.00;100826.13;4953306;28;20534;-82
2021/01/19 01:36:48;;;;;;;53.83;24.90;;;;;;;2.08;100.00;100833.22;4956088;28;20058;-82
2021/01/19 01:39:29;;;;;;;42.58;22.77;;;;;;;2.06;100.00;100829.78;4952988;28;20074;-82
2021/01/19 01:41:56;;;;;;;48.13;24.08;;;;;;;2.13;100.00;100835.72;4970201;28;20046;-80
2021/01/19 01:44:23;;;;;;;42.60;22.25;;;;;;;2.12;100.00;100834.84;4957415;28;20337;-83
2021/01/19 01:46:50;;;;;;;42.55;22.80;;;;;;;2.29;100.00;100837.06;4975109;28;20096;-82
2021/01/19 01:49:17;;;;;;;39.42;20.95;;;;;;;2.37;100.00;100837.78;4975005;28;20054;-81
2021/01/19 01:51:44;;;;;;;47.45;23.55;;;;;;;2.25;100.00;100836.31;4970811;28;20062;-81
2021/01/19 01:54:11;;;;;;;41.08;21.10;;;;;;;2.38;100.00;100836.03;4969843;28;20082;-81
2021/01/19 01:56:38;;;;;;;35.90;20.88;;;;;;;2.27;100.00;100823.28;4956708;28;20483;-81
2021/01/19 01:59:05;;;;;;;46.83;22.05;;;;;;;2.18;100.00;100816.53;4972856;28;20081;-82
2021/01/19 02:01:32;;;;;;;37.63;21.48;;;;;;;2.26;100.00;100818.97;4970939;28;20079;-82
2021/01/19 02:04:01;;;;;;;36.33;21.40;;;;;;;2.36;99.99;100814.44;4946321;28;20057;-81
2021/01/19 02:06:30;;;;;;;40.08;21.10;;;;;;;2.36;100.00;100814.44;4968842;28;20042;-82
2021/01/19 02:09:06;;;;;;;38.92;20.88;;;;;;;2.38;99.78;100804.84;4964969;28;20039;-82
2021/01/19 02:11:54;;;;;;;30.73;19.52;;;;;;;2.33;99.49;100810.16;4957190;28;20319;-82
2021/01/19 02:14:41;;;;;;;40.83;21.67;;;;;;;2.29;99.92;100811.09;4950986;28;20050;-82
2021/01/19 02:17:24;;;;;;;37.33;20.40;;;;;;;2.27;100.00;100805.94;4985469;28;20050;-80
2021/01/19 02:20:12;;;;;;;32.97;19.98;;;;;;;2.29;99.52;100805.91;4971495;28;20126;-82
2021/01/19 02:22:54;;;;;;;35.47;20.95;;;;;;;2.36;99.88;100798.84;4967560;28;20055;-81
2021/01/19 02:25:48;;;;;;;38.33;20.00;;;;;;;2.41;99.42;100799.59;4970462;28;20070;-81
2021/01/19 02:28:25;;;;;;;36.08;19.73;;;;;;;2.51;98.47;100807.13;4970493;28;20043;-82
2021/01/19 02:31:13;;;;;;;34.80;20.02;;;;;;;2.44;98.87;100810.78;4987134;28;20125;-79
2021/01/19 02:33:55;;;;;;;30.95;19.67;;;;;;;2.28;99.41;100805.06;4968263;28;20059;-79
2021/01/19 02:36:37;;;;;;;32.47;18.25;;;;;;;2.41;99.22;100804.78;4950733;28;20146;-82
2021/01/19 02:39:04;;;;;;;31.90;17.35;;;;;;;2.44;98.51;100810.78;4964287;28;20163;-80
2021/01/19 02:41:31;;;;;;;32.25;18.77;;;;;;;2.27;99.03;100805.94;4964115;28;20085;-80
2021/01/19 02:44:22;;;;;;;31.60;18.77;;;;;;;2.17;99.37;100796.66;4969499;28;20039;-79
2021/01/19 02:46:54;;;;;;;36.08;19.35;;;;;;;2.38;100.00;100804.84;4974174;28;20112;-79
2021/01/19 02:49:21;;;;;;;33.50;19.40;;;;;;;2.35;99.66;100803.19;4972156;28;20054;-81
2021/01/19 02:51:55;;;;;;;30.15;18.23;;;;;;;2.41;98.68;100797.84;4966296;28;20063;-79
2021/01/19 02:54:22;;;;;;;31.80;18.52;;;;;;;2.46;98.75;100797.75;4975257;28;20115;-78
2021/01/19 02:56:52;;;;;;;28.08;19.05;;;;;;;2.46;98.50;100801.19;4961450;28;20034;-80
2021/01/19 02:59:47;;;;;;;35.10;18.40;;;;;;;2.45;98.41;100802.09;4958813;28;20039;-82
2021/01/19 03:02:19;;;;;;;34.50;19.77;;;;;;;2.39;98.36;100794.44;4973193;28;20054;-82
2021/01/19 03:04:47;;;;;;;35.25;19.75;;;;;;;2.33;98.26;100799.75;4979745;28;20030;-82
2021/01/19 03:07:15;;;;;;;41.22;18.98;;;;;;;2.44;98.48;100796.94;4973273;28;20042;-83
2021/01/19 03:09:42;;;;;;;31.20;17.05;;;;;;;2.49;97.97;100795.09;4981445;28;20130;-80
2021/01/19 03:12:12;;;;;;;38.40;19.02;;;;;;;2.39;98.69;100791.84;4966308;28;20046;-82
2021/01/19 03:14:40;;;;;;;32.63;18.42;;;;;;;2.49;98.30;100797.69;4978599;28;20146;-81
2021/01/19 03:17:07;;;;;;;32.13;17.65;;;;;;;2.50;97.86;100795.03;4971631;28;20059;-81
2021/01/19 03:19:37;;;;;;;30.25;17.15;;;;;;;2.51;98.04;100786.34;4951904;28;20280;-80
2021/01/19 03:22:05;;;;;;;31.98;20.38;;;;;;;2.60;97.96;100794.81;4949896;28;20043;-83
2021/01/19 03:24:32;;;;;;;35.25;17.63;;;;;;;2.53;97.45;100784.59;4969811;28;20043;-80
2021/01/19 03:26:59;;;;;;;31.40;18.08;;;;;;;2.42;98.25;100785.72;4971692;28;20051;-81
2021/01/19 03:29:26;;;;;;;35.97;17.05;;;;;;;2.37;98.71;100791.00;4968280;28;20147;-82
2021/01/19 03:31:53;;;;;;;28.92;16.92;;;;;;;2.40;98.74;100788.34;4968565;28;20039;-82
2021/01/19 03:34:20;;;;;;;28.27;17.42;;;;;;;2.29;98.36;100778.19;4969415;28;20050;-80
2021/01/19 03:36:47;;;;;;;30.13;18.38;;;;;;;2.40;98.83;100782.31;4952487;28;20051;-80
2021/01/19 03:39:14;;;;;;;34.22;17.08;;;;;;;2.27;99.15;100773.94;4969160;28;20058;-82
2021/01/19 03:41:41;;;;;;;33.92;18.10;;;;;;;2.33;98.68;100778.97;4977003;28;20555;-82
2021/01/19 03:44:08;;;;;;;29.67;17.90;;;;;;;2.42;98.73;100770.97;4955139;28;20081;-80
2021/01/19 03:46:35;;;;;;;30.30;16.98;;;;;;;2.39;98.25;100776.25;4967423;28;20083;-81
2021/01/19 03:49:03;;;;;;;30.40;17.25;;;;;;;2.29;98.12;100777.31;4966318;28;20062;-79
2021/01/19 03:51:30;;;;;;;31.33;17.05;;;;;;;2.32;98.18;100781.63;4942942;28;20121;-81
2021/01/19 03:53:56;;;;;;;32.22;17.08;;;;;;;2.47;98.21;100774.31;4973647;28;20046;-82
2021/01/19 03:56:23;;;;;;;31.05;17.38;;;;;;;2.40;98.21;100770.16;4972482;28;20125;-81
2021/01/19 03:58:50;;;;;;;27.42;16.75;;;;;;;2.38;98.19;100771.91;4952953;28;20054;-80
2021/01/19 04:01:17;;;;;;;31.90;17.55;;;;;;;2.38;98.57;100773.66;4941672;28;20670;-81
2021/01/19 04:03:45;;;;;;;32.97;18.27;;;;;;;2.43;98.61;100764.03;4989318;28;20030;-81
2021/01/19 04:06:15;;;;;;;29.05;17.20;;;;;;;2.34;97.72;100767.69;4968085;28;20166;-82
2021/01/19 04:08:42;;;;;;;28.50;15.65;;;;;;;2.34;98.51;100765.09;4940085;28;20054;-81
2021/01/19 04:11:09;;;;;;;32.72;17.05;;;;;;;2.45;97.94;100764.84;4978859;28;20042;-81
2021/01/19 04:13:37;;;;;;;28.85;15.73;;;;;;;2.29;97.54;100759.16;4963000;28;20142;-81
2021/01/19 04:16:04;;;;;;;30.35;15.63;;;;;;;2.29;98.61;100764.34;4952050;28;20043;-81
2021/01/19 04:18:30;;;;;;;24.98;15.63;;;;;;;2.46;98.11;100766.56;4951739;28;20059;-80
2021/01/19 04:20:57;;;;;;;26.35;16.42;;;;;;;2.27;98.04;100755.75;4979403;28;20089;-82
2021/01/19 04:23:24;;;;;;;24.40;16.00;;;;;;;2.16;99.20;100752.50;4947410;28;20055;-81
2021/01/19 04:25:51;;;;;;;26.05;15.85;;;;;;;2.20;98.90;100748.97;4972047;28;20442;-81
2021/01/19 04:28:20;;;;;;;26.80;15.77;;;;;;;2.22;99.32;100752.41;4952146;28;20066;-80
2021/01/19 04:30:47;;;;;;;31.02;17.67;;;;;;;2.29;99.30;100751.34;4956616;28;20054;-80
2021/01/19 04:33:14;;;;;;;23.30;17.15;;;;;;;2.19;99.11;100744.66;4964147;28;20411;-84
2021/01/19 04:35:45;;;;;;;29.35;15.52;;;;;;;2.28;98.74;100754.84;4964236;28;20343;-83
2021/01/19 04:38:12;;;;;;;23.58;15.98;;;;;;;2.21;99.16;100751.53;4945396;28;20081;-82
2021/01/19 04:40:39;;;;;;;26.83;16.15;;;;;;;2.17;99.04;100741.25;4977982;28;20104;-80
2021/01/19 04:43:05;;;;;;;27.95;16.90;;;;;;;2.19;99.57;100748.13;4968182;28;20516;-81
2021/01/19 04:45:33;;;;;;;27.40;16.10;;;;;;;2.36;98.38;100745.13;4944521;28;20247;-80
2021/01/19 04:48:01;;;;;;;27.25;16.05;;;;;;;2.22;98.72;100747.22;4956691;28;20054;-83
2021/01/19 04:50:31;;;;;;;28.92;15.00;;;;;;;2.31;98.42;100746.16;4987191;28;20068;-82
2021/01/19 04:52:59;;;;;;;21.75;16.00;;;;;;;2.25;98.52;100744.50;4968602;28;20051;-83
2021/01/19 04:55:26;;;;;;;27.38;15.98;;;;;;;2.33;98.70;100747.78;4955072;28;20145;-81
2021/01/19 04:57:57;;;;;;;24.98;15.50;;;;;;;2.11;99.00;100736.19;4933928;28;20179;-82
2021/01/19 05:00:44;;;;;;;26.20;16.30;;;;;;;2.07;98.90;100732.78;4964222;28;20471;-82
2021/01/19 05:03:23;;;;;;;28.63;15.98;;;;;;;2.00;99.74;100737.28;4945002;28;20078;-81
2021/01/19 05:05:55;;;;;;;27.70;17.60;;;;;;;2.14;99.60;100739.56;4971234;28;20051;-80
2021/01/19 05:08:31;;;;;;;27.20;16.20;;;;;;;2.15;98.47;100738.69;4962828;28;20047;-80
2021/01/19 05:11:31;;;;;;;26.70;15.90;;;;;;;2.07;99.02;100738.00;4954374;28;20258;-79
2021/01/19 05:13:58;;;;;;;27.17;16.63;;;;;;;1.98;99.12;100738.19;4947580;28;20047;-82
2021/01/19 05:16:27;;;;;;;26.10;15.90;;;;;;;1.82;99.70;100729.91;4956050;28;20038;-82
2021/01/19 05:18:56;;;;;;;22.98;15.45;;;;;;;1.79;100.00;100724.75;4941644;28;20042;-80
2021/01/19 05:21:23;;;;;;;26.15;14.63;;;;;;;1.87;99.39;100719.41;4972993;28;20055;-81
2021/01/19 05:23:50;;;;;;;23.73;14.55;;;;;;;1.77;100.00;100710.97;4968886;28;20070;-80
2021/01/19 05:26:18;;;;;;;32.75;17.42;;;;;;;1.78;99.79;100700.56;4951913;28;20388;-82
2021/01/19 05:28:48;;;;;;;22.95;14.38;;;;;;;1.84;99.52;100693.50;4948948;28;20056;-82
2021/01/19 05:31:14;;;;;;;29.33;14.88;;;;;;;1.80;99.60;100691.88;4949849;28;20142;-82
2021/01/19 05:34:00;;;;;;;28.98;15.38;;;;;;;1.91;98.68;100690.75;4952366;28;20046;-81
2021/01/19 05:36:38;;;;;;;22.50;13.55;;;;;;;1.97;98.53;100672.44;4971528;28;21036;-82
2021/01/19 05:39:07;;;;;;;31.38;14.10;;;;;;;1.90;98.57;100672.63;4968988;28;20326;-80
2021/01/19 05:41:40;;;;;;;19.83;12.55;;;;;;;1.90;98.68;100673.47;4974441;28;20535;-82
2021/01/19 05:44:17;;;;;;;21.52;13.60;;;;;;;1.89;98.08;100676.97;4965813;28;20463;-82
2021/01/19 05:47:06;;;;;;;17.60;11.07;;;;;;;1.94;97.94;100682.06;4968536;28;20484;-81
2021/01/19 05:49:41;;;;;;;15.68;10.70;;;;;;;1.99;97.81;100683.66;4961251;28;20035;-82
2021/01/19 05:52:13;;;;;;;19.13;10.32;;;;;;;1.92;97.55;100671.69;4967886;28;20506;-81
2021/01/19 05:54:45;;;;;;;22.60;11.43;;;;;;;1.86;97.81;100671.84;4953800;28;20107;-82
2021/01/19 05:57:14;;;;;;;16.10;11.55;;;;;;;1.82;98.49;100669.34;4953638;28;20047;-81
2021/01/19 05:59:43;;;;;;;21.65;11.68;;;;;;;1.85;97.76;100677.94;4968043;28;20449;-80
2021/01/19 06:02:10;;;;;;;19.95;11.90;;;;;;;1.91;98.40;100671.72;4977498;28;20099;-82
2021/01/19 06:04:53;;;;;;;24.88;11.13;;;;;;;1.95;98.24;100669.03;4961007;28;20045;-81
2021/01/19 06:08:01;;;;;;;20.98;10.30;;;;;;;1.95;97.64;100666.44;4956943;28;20054;-81
2021/01/19 06:10:27;;;;;;;18.58;9.85;;;;;;;1.89;97.62;100661.41;4923727;29;20058;-80
2021/01/19 06:12:55;;;;;;;18.10;10.85;;;;;;;1.86;97.57;100656.25;4923399;29;20100;-81
2021/01/19 06:15:27;;;;;;;18.20;10.57;;;;;;;1.81;97.94;100655.53;4930694;28;20139;-81
2021/01/19 06:17:54;;;;;;;17.95;9.57;;;;;;;1.81;97.42;100654.66;4972453;28;20138;-81
2021/01/19 06:20:22;;;;;;;16.23;10.10;;;;;;;1.97;97.11;100651.66;4941638;28;20043;-82
2021/01/19 06:22:50;;;;;;;16.02;9.90;;;;;;;1.82;97.38;100656.38;4960187;28;20049;-81
2021/01/19 06:25:16;;;;;;;19.25;10.18;;;;;;;1.77;97.65;100646.94;4969609;28;20043;-80
2021/01/19 06:27:43;;;;;;;19.05;9.73;;;;;;;1.85;97.69;100638.13;4973927;28;20055;-83
2021/01/19 06:30:12;;;;;;;17.15;9.85;;;;;;;1.99;97.42;100636.91;4968264;28;20051;-81
2021/01/19 06:32:49;;;;;;;16.27;9.10;;;;;;;1.90;97.10;100631.09;4959799;28;20047;-80
2021/01/19 06:35:19;;;;;;;16.88;9.98;;;;;;;1.93;97.35;100629.25;4967199;28;20050;-86
2021/01/19 06:37:48;;;;;;;15.13;9.55;;;;;;;1.87;97.16;100623.38;4947530;28;20043;-85
2021/01/19 06:40:24;;;;;;;17.27;8.85;;;;;;;1.93;97.04;100624.06;4974744;28;20034;-83
2021/01/19 06:43:02;;;;;;;16.00;9.60;;;;;;;2.05;96.25;100622.09;4992416;23;20143;-77
2021/01/19 06:45:31;;;;;;;18.75;9.38;;;;;;;2.02;96.07;100616.06;4997348;28;20038;-76
2021/01/19 06:48:02;;;;;;;12.98;8.88;;;;;;;2.08;95.79;100611.63;4992364;28;20576;-77
2021/01/19 06:50:33;;;;;;;16.75;9.07;;;;;;;1.97;96.44;100607.53;4947389;28;20046;-77
2021/01/19 06:53:03;;;;;;;19.42;10.25;;;;;;;2.10;95.72;100596.84;4942384;28;20058;-77
2021/01/19 06:55:49;;;;;;;15.43;8.88;;;;;;;1.97;96.41;100594.53;4964654;28;20047;-77
2021/01/19 06:58:27;;;;;;;15.75;9.50;;;;;;;2.07;96.32;100592.56;4976647;28;20141;-76
2021/01/19 07:01:09;;;;;;;16.92;9.25;;;;;;;1.98;96.16;100588.50;4972722;28;20043;-77
2021/01/19 07:03:37;;;;;;;20.35;10.57;;;;;;;1.81;97.04;100592.38;4965108;28;20149;-77
2021/01/19 07:06:07;;;;;;;15.55;8.90;;;;;;;1.86;97.04;100588.78;4962543;28;20142;-77
2021/01/19 07:08:57;;;;;;;19.52;9.85;;;;;;;1.93;96.39;100589.47;4973127;28;20039;-77
2021/01/19 07:11:36;;;;;;;16.20;9.60;;;;;;;1.84;96.53;100582.75;4974023;28;20059;-76
2021/01/19 07:14:12;;;;;;;15.50;9.68;;;;;;;1.84;97.35;100571.50;4980258;28;20103;-78
2021/01/19 07:16:55;;;;;;;13.65;9.43;;;;;;;1.82;96.59;100566.38;4982799;28;20070;-77
2021/01/19 07:19:31;;;;;;;16.70;10.20;;;;;;;1.95;96.05;100570.38;4969064;28;20114;-77
2021/01/19 07:22:03;;;;;;;20.48;8.30;;;;;;;1.87;96.72;100564.50;4973921;28;20082;-78
2021/01/19 07:24:38;;;;;;;16.48;9.57;;;;;;;2.09;95.52;100559.66;4981309;28;20050;-76
2021/01/19 07:27:07;;;;;;;14.13;8.38;;;;;;;1.95;95.80;100556.56;4977856;28;20118;-77
2021/01/19 07:29:34;;;;;;;19.45;10.30;;;;;;;1.86;96.42;100565.41;4956165;28;20057;-79
2021/01/19 07:32:07;;;;;;;19.40;9.60;;;;;;;1.70;97.27;100551.94;4973967;28;20076;-78
2021/01/19 07:34:36;;;;;;;21.05;10.32;;;;;;;1.91;96.70;100553.16;4972619;28;20043;-78
2021/01/19 07:37:03;;;;;;;22.88;10.18;;;;;;;2.00;96.20;100549.50;4956920;28;20051;-77
2021/01/19 07:39:33;;;;;;;17.95;9.48;;;;;;;2.21;95.11;100550.72;4972854;28;20055;-77
2021/01/19 07:42:35;;;;;;;17.63;9.45;;;;;;;2.16;94.51;100545.63;4983205;28;20081;-77
2021/01/19 07:45:05;;;;;;;14.63;9.02;;;;;;;2.15;95.01;100532.66;4969419;28;20126;-78
2021/01/19 07:47:36;;;;;;;22.67;9.38;;;;;;;2.45;95.50;100529.28;4971306;28;20138;-78
2021/01/19 07:50:05;;;;;;;18.17;8.77;;;;;;;2.35;93.87;100525.22;4972301;28;20054;-77
2021/01/19 07:52:38;;;;;;;19.73;10.68;;;;;;;2.30;94.05;100532.28;4971848;28;20094;-78
2021/01/19 07:55:18;;;;;;;18.20;9.45;;;;;;;2.18;94.69;100533.44;4984959;28;20110;-77
2021/01/19 07:57:50;;;;;;;19.30;10.95;;;;;;;2.30;94.27;100529.69;4974456;28;20054;-78
2021/01/19 08:00:23;;;;;;;20.30;9.73;;;;;;;2.25;94.43;100527.22;4971768;28;20057;-77
2021/01/19 08:03:04;;;;;;;15.02;9.50;;;;;;;2.17;95.23;100517.91;4957821;28;20081;-77
2021/01/19 08:05:32;;;;;;;20.73;11.13;;;;;;;2.49;93.61;100510.09;4979971;28;20035;-78
2021/01/19 08:07:59;;;;;;;14.80;10.43;;;;;;;2.47;93.36;100511.03;4966259;28;20051;-77
2021/01/19 08:10:28;;;;;;;19.70;10.43;;;;;;;2.53;93.20;100514.31;4967780;28;20085;-77
2021/01/19 08:12:56;;;;;;;17.75;10.75;;;;;;;2.31;94.15;100504.56;4967374;28;20046;-77
2021/01/19 08:15:31;;;;;;;17.58;9.68;;;;;;;2.59;93.85;100502.91;4957618;28;20074;-76
2021/01/19 08:17:59;;;;;;;17.83;10.10;;;;;;;2.53;93.93;100505.69;4960694;28;20059;-79
2021/01/19 08:20:35;;;;;;;17.95;10.98;;;;;;;2.57;93.29;100514.22;4952207;28;20693;-77
2021/01/19 08:23:12;;;;;;;18.35;10.10;;;;;;;2.42;94.04;100502.50;4966464;28;20054;-80
2021/01/19 08:25:40;;;;;;;20.75;11.63;;;;;;;2.50;93.44;100498.81;4964681;28;20554;-79
2021/01/19 08:28:11;;;;;;;20.42;11.65;;;;;;;2.67;93.26;100500.94;4964069;28;20488;-76
2021/01/19 08:30:40;;;;;;;16.20;9.48;;;;;;;2.70;92.80;100490.47;4960438;28;20059;-79
2021/01/19 08:33:07;;;;;;;18.15;11.48;;;;;;;2.69;92.63;100488.75;4980294;28;20062;-77
2021/01/19 08:35:37;;;;;;;16.58;10.35;;;;;;;2.70;92.70;100489.59;4946487;28;20084;-79
2021/01/19 08:38:04;;;;;;;20.75;10.60;;;;;;;2.70;92.92;100494.78;4966812;28;20055;-79
2021/01/19 08:40:33;;;;;;;21.15;10.63;;;;;;;2.79;92.22;100485.00;4969661;28;20039;-80
2021/01/19 08:43:00;;;;;;;19.60;11.15;;;;;;;2.83;92.49;100479.69;4966787;28;20035;-79
2021/01/19 08:45:40;;;;;;;21.85;11.55;;;;;;;2.85;91.83;100473.56;4953292;28;20049;-79
2021/01/19 08:48:09;;;;;;;24.20;12.98;;;;;;;2.96;92.75;100468.03;4970168;28;20047;-77
2021/01/19 08:50:41;;;;;;;15.73;11.02;;;;;;;2.63;92.83;100462.09;4952342;28;20047;-79
2021/01/19 08:53:09;;;;;;;16.60;9.35;;;;;;;2.74;92.77;100465.22;4933642;28;20473;-79
2021/01/19 08:55:37;;;;;;;19.83;10.80;;;;;;;2.96;91.01;100452.44;4955608;28;20051;-80
2021/01/19 08:58:06;;;;;;;21.83;10.40;;;;;;;2.94;91.40;100447.28;4970527;28;20077;-77
2021/01/19 09:00:37;;;;;;;16.70;9.50;;;;;;;2.99;90.56;100440.19;4964438;28;20051;-77
2021/01/19 09:03:11;;;;;;;18.90;9.88;;;;;;;3.03;91.30;100439.19;4943707;28;20051;-78
2021/01/19 09:05:38;;;;;;;15.93;8.95;;;;;;;3.01;90.00;100437.53;4935637;28;20131;-78
2021/01/19 09:08:16;;;;;;;13.73;8.75;;;;;;;2.94;90.87;100431.69;4969489;28;20058;-78
2021/01/19 09:10:43;;;;;;;18.63;8.85;;;;;;;3.07;89.79;100429.56;4975341;28;20085;-78
2021/01/19 09:13:10;;;;;;;17.52;8.68;;;;;;;3.07;89.70;100420.91;4967950;28;20538;-78
2021/01/19 09:15:39;;;;;;;17.30;9.70;;;;;;;3.18;89.22;100416.22;4956833;28;20054;-79
2021/01/19 09:18:09;;;;;;;15.73;9.18;;;;;;;3.14;89.53;100410.25;4968994;28;20486;-79
2021/01/19 09:20:36;;;;;;;16.88;8.70;;;;;;;3.11;89.67;100417.28;4956169;28;20059;-78
2021/01/19 09:23:17;;;;;;;16.02;8.52;;;;;;;3.16;89.89;100407.63;4964892;28;20671;-79
2021/01/19 09:25:44;;;;;;;13.77;8.65;;;;;;;2.96;89.80;100396.06;4967638;28;20035;-78
2021/01/19 09:28:12;;;;;;;16.30;7.70;;;;;;;3.06;89.71;100394.03;4965088;28;20078;-79
2021/01/19 09:30:40;;;;;;;19.52;8.40;;;;;;;3.00;90.17;100395.06;4965891;28;20031;-79
2021/01/19 09:33:11;;;;;;;11.13;7.47;;;;;;;2.99;90.97;100387.34;4962337;28;20062;-79
2021/01/19 09:35:40;;;;;;;13.52;8.27;;;;;;;2.95;90.68;100375.31;4971198;28;20160;-78
2021/01/19 09:38:13;;;;;;;14.68;8.27;;;;;;;2.94;90.58;100376.22;4991378;28;20078;-79
2021/01/19 09:40:41;;;;;;;13.15;7.38;;;;;;;3.14;89.93;100376.44;4971150;28;20090;-78
2021/01/19 09:43:13;;;;;;;13.25;7.35;;;;;;;3.08;90.11;100371.44;4966524;28;20074;-79
2021/01/19 09:45:40;;;;;;;14.45;7.15;;;;;;;3.24;88.57;100372.66;4969595;28;20949;-78
2021/01/19 09:48:10;;;;;;;16.45;7.60;;;;;;;3.24;89.02;100369.19;4964456;28;20082;-77
2021/01/19 09:50:38;;;;;;;12.15;6.90;;;;;;;3.05;89.57;100361.97;4968307;28;20045;-76
2021/01/19 09:53:23;;;;;;;14.07;7.38;;;;;;;3.07;90.28;100355.91;4960653;28;20423;-76
2021/01/19 09:55:51;;;;;;;11.68;7.45;;;;;;;2.94;89.73;100353.69;4962780;28;20211;-76
2021/01/19 09:58:22;;;;;;;11.50;6.68;;;;;;;2.96;89.54;100341.47;4925416;28;20074;-78
2021/01/19 10:00:49;;;;;;;11.43;6.88;;;;;;;2.95;89.58;100329.38;4949542;28;20053;-77
2021/01/19 10:03:17;;;;;;;15.82;7.28;;;;;;;2.98;90.27;100318.88;4956024;28;20082;-77
2021/01/19 10:05:44;;;;;;;16.38;7.03;;;;;;;2.95;89.53;100312.94;4943775;28;20130;-78
2021/01/19 10:08:11;;;;;;;11.10;6.78;;;;;;;3.01;89.91;100300.56;4963068;28;20170;-77
2021/01/19 10:10:40;;;;;;;13.13;6.22;;;;;;;2.89;90.18;100295.78;4946561;28;20046;-79
2021/01/19 10:13:07;;;;;;;10.93;6.07;;;;;;;2.67;91.05;100290.41;4954424;28;20058;-77
2021/01/19 10:15:37;;;;;;;11.48;5.78;;;;;;;2.78;91.17;100287.47;4968641;28;20101;-78
2021/01/19 10:18:04;;;;;;;10.35;5.75;;;;;;;2.81;91.17;100274.38;4971930;28;20076;-77
2021/01/19 10:20:33;;;;;;;11.68;6.03;;;;;;;2.84;91.17;100266.50;4976379;28;20093;-78
2021/01/19 10:23:00;;;;;;;11.18;6.55;;;;;;;2.90;91.10;100258.47;4956252;28;20393;-77
2021/01/19 10:25:28;;;;;;;11.85;6.00;;;;;;;2.99;91.13;100250.38;4959956;28;20054;-77
2021/01/19 10:27:56;;;;;;;9.68;5.57;;;;;;;2.91;91.10;100241.13;4946443;28;20146;-78
2021/01/19 10:30:28;;;;;;;10.73;4.88;;;;;;;3.08;91.11;100235.34;4962717;28;20093;-77
2021/01/19 10:32:55;;;;;;;13.57;5.72;;;;;;;3.08;89.94;100228.41;4954762;28;20054;-77
2021/01/19 10:35:31;;;;;;;13.77;5.93;;;;;;;2.87;90.52;100213.53;4963596;28;20090;-79
2021/01/19 10:38:00;;;;;;;9.40;5.07;;;;;;;3.13;89.80;100210.88;4961774;28;20050;-78
2021/01/19 10:40:28;;;;;;;9.05;5.15;;;;;;;3.00;89.75;100202.66;4973119;28;20059;-77
2021/01/19 10:42:56;;;;;;;10.00;5.07;;;;;;;3.19;88.84;100196.81;4951232;28;20579;-76
2021/01/19 10:45:29;;;;;;;12.00;5.47;;;;;;;3.04;89.84;100186.03;4965483;28;20050;-78
2021/01/19 10:47:58;;;;;;;11.38;5.50;;;;;;;3.12;89.24;100180.59;4951869;28;20051;-76
2021/01/19 10:50:29;;;;;;;12.32;4.85;;;;;;;3.11;88.75;100165.88;4971277;28;20103;-78
2021/01/19 10:53:01;;;;;;;11.38;4.70;;;;;;;3.15;88.05;100172.69;4971250;28;20043;-78
2021/01/19 10:55:32;;;;;;;13.50;5.53;;;;;;;3.03;89.57;100162.69;4955759;23;20055;-78
2021/01/19 10:58:02;;;;;;;6.60;4.25;;;;;;;3.25;88.99;100160.19;4988772;28;20065;-75
2021/01/19 11:00:30;;;;;;;8.13;4.85;;;;;;;3.02;89.10;100154.06;5015201;28;20077;-76
2021/01/19 11:02:56;;;;;;;14.30;4.97;;;;;;;3.00;89.58;100155.84;5005615;28;20034;-75
2021/01/19 11:05:24;;;;;;;11.80;5.03;;;;;;;2.91;89.92;100152.72;4983521;28;20103;-77
2021/01/19 11:07:53;;;;;;;9.93;4.45;;;;;;;2.76;91.06;100147.16;4964921;28;20562;-77
2021/01/19 11:10:21;;;;;;;10.18;4.90;;;;;;;2.90;90.80;100138.88;4964490;28;20062;-77
2021/01/19 11:12:50;;;;;;;11.27;5.20;;;;;;;2.56;92.24;100143.53;4974170;28;20511;-76
2021/01/19 11:15:17;;;;;;;11.25;5.28;;;;;;;2.61;93.16;100139.03;4971159;28;20049;-77
2021/01/19 11:17:47;;;;;;;15.10;5.75;;;;;;;2.54;93.20;100135.81;4974432;28;20185;-77
2021/01/19 11:20:14;;;;;;;9.95;4.97;;;;;;;2.52;93.66;100135.00;4978908;28;20050;-76
2021/01/19 11:22:45;;;;;;;10.68;4.63;;;;;;;2.58;92.98;100120.97;4978603;28;20062;-77
2021/01/19 11:25:13;;;;;;;7.80;4.45;;;;;;;2.25;93.81;100121.16;4974388;28;20156;-77
2021/01/19 11:27:41;;;;;;;11.77;6.20;;;;;;;2.16;95.36;100117.16;4961587;28;20062;-76
2021/01/19 11:30:08;;;;;;;9.40;5.50;;;;;;;2.22;95.15;100114.34;4963365;28;20058;-78
2021/01/19 11:32:35;;;;;;;18.25;5.90;;;;;;;2.18;95.02;100117.94;4949943;28;20055;-78
2021/01/19 11:35:03;;;;;;;10.93;5.13;;;;;;;2.06;94.96;100104.50;4976835;28;20564;-78
2021/01/19 11:37:30;;;;;;;13.13;4.80;;;;;;;2.08;96.25;100093.19;4980924;28;20135;-78